sensor_id;sensor_type;location;lat;lon;timestamp;P1;durP1;ratioP1;P2;durP2;ratioP2
75035;SDS011;64247;51.540;5.854;2023-07-29T00:01:27;4.13;;;2.65;;
75035;SDS011;64247;51.540;5.854;2023-07-29T00:03:28;3.05;;;2.80;;
75035;SDS011;64247;51.540;5.854;2023-07-29T00:05:30;4.65;;;2.60;;
75035;SDS011;64247;51.540;5.854;2023-07-29T00:07:31;2.65;;;2.45;;
75035;SDS011;64247;51.540;5.854;2023-07-29T00:09:32;3.25;;;2.85;;
75035;SDS011;64247;51.540;5.854;2023-07-29T00:11:33;2.67;;;2.47;;
75035;SDS011;64247;51.540;5.854;2023-07-29T00:13:34;3.10;;;2.78;;
75035;SDS011;64247;51.540;5.854;2023-07-29T00:15:34;3.15;;;2.75;;
75035;SDS011;64247;51.540;5.854;2023-07-29T00:17:35;4.15;;;2.35;;
75035;SDS011;64247;51.540;5.854;2023-07-29T00:19:36;4.85;;;2.90;;
75035;SDS011;64247;51.540;5.854;2023-07-29T00:21:37;3.63;;;2.80;;
75035;SDS011;64247;51.540;5.854;2023-07-29T00:23:38;10.98;;;4.03;;
75035;SDS011;64247;51.540;5.854;2023-07-29T00:25:39;4.18;;;3.25;;
75035;SDS011;64247;51.540;5.854;2023-07-29T00:27:39;5.40;;;3.03;;
75035;SDS011;64247;51.540;5.854;2023-07-29T00:29:40;3.50;;;2.70;;
75035;SDS011;64247;51.540;5.854;2023-07-29T00:31:41;4.65;;;2.83;;
75035;SDS011;64247;51.540;5.854;2023-07-29T00:33:42;3.95;;;3.25;;
75035;SDS011;64247;51.540;5.854;2023-07-29T00:35:43;2.88;;;2.67;;
75035;SDS011;64247;51.540;5.854;2023-07-29T00:37:43;3.28;;;2.97;;
75035;SDS011;64247;51.540;5.854;2023-07-29T00:39:45;3.58;;;3.03;;
75035;SDS011;64247;51.540;5.854;2023-07-29T00:41:46;4.60;;;3.88;;
75035;SDS011;64247;51.540;5.854;2023-07-29T00:43:47;3.20;;;2.90;;
75035;SDS011;64247;51.540;5.854;2023-07-29T00:45:47;5.80;;;3.40;;
75035;SDS011;64247;51.540;5.854;2023-07-29T00:47:49;5.68;;;2.90;;
75035;SDS011;64247;51.540;5.854;2023-07-29T00:49:51;3.60;;;3.30;;
75035;SDS011;64247;51.540;5.854;2023-07-29T00:51:51;4.65;;;2.92;;
75035;SDS011;64247;51.540;5.854;2023-07-29T00:53:52;5.25;;;3.10;;
75035;SDS011;64247;51.540;5.854;2023-07-29T00:55:53;4.50;;;3.40;;
75035;SDS011;64247;51.540;5.854;2023-07-29T00:57:54;3.78;;;3.30;;
75035;SDS011;64247;51.540;5.854;2023-07-29T00:59:55;3.38;;;3.08;;
75035;SDS011;64247;51.540;5.854;2023-07-29T01:01:57;6.85;;;3.70;;
75035;SDS011;64247;51.540;5.854;2023-07-29T01:03:58;3.20;;;2.88;;
75035;SDS011;64247;51.540;5.854;2023-07-29T01:06:01;4.50;;;3.17;;
75035;SDS011;64247;51.540;5.854;2023-07-29T01:08:27;3.85;;;2.97;;
75035;SDS011;64247;51.540;5.854;2023-07-29T01:13:19;4.72;;;3.38;;
75035;SDS011;64247;51.540;5.854;2023-07-29T01:15:53;3.92;;;3.13;;
75035;SDS011;64247;51.540;5.854;2023-07-29T01:18:01;4.20;;;3.38;;
75035;SDS011;64247;51.540;5.854;2023-07-29T01:20:09;3.35;;;3.05;;
75035;SDS011;64247;51.540;5.854;2023-07-29T01:22:13;5.63;;;3.47;;
75035;SDS011;64247;51.540;5.854;2023-07-29T01:24:16;5.75;;;3.70;;
75035;SDS011;64247;51.540;5.854;2023-07-29T01:26:17;3.88;;;3.40;;
75035;SDS011;64247;51.540;5.854;2023-07-29T01:28:17;4.32;;;3.92;;
75035;SDS011;64247;51.540;5.854;2023-07-29T01:30:19;5.00;;;3.55;;
75035;SDS011;64247;51.540;5.854;2023-07-29T01:32:27;3.95;;;3.22;;
75035;SDS011;64247;51.540;5.854;2023-07-29T01:35:31;3.47;;;3.17;;
75035;SDS011;64247;51.540;5.854;2023-07-29T01:37:30;3.60;;;3.28;;
75035;SDS011;64247;51.540;5.854;2023-07-29T01:39:34;3.70;;;2.83;;
75035;SDS011;64247;51.540;5.854;2023-07-29T01:41:38;4.97;;;3.15;;
75035;SDS011;64247;51.540;5.854;2023-07-29T01:43:42;4.40;;;3.38;;
75035;SDS011;64247;51.540;5.854;2023-07-29T01:45:44;3.38;;;3.08;;
75035;SDS011;64247;51.540;5.854;2023-07-29T01:47:45;4.60;;;3.72;;
75035;SDS011;64247;51.540;5.854;2023-07-29T01:49:45;4.15;;;3.75;;
75035;SDS011;64247;51.540;5.854;2023-07-29T01:51:48;3.95;;;3.45;;
75035;SDS011;64247;51.540;5.854;2023-07-29T01:53:48;5.38;;;3.75;;
75035;SDS011;64247;51.540;5.854;2023-07-29T01:55:49;3.90;;;3.50;;
75035;SDS011;64247;51.540;5.854;2023-07-29T01:57:50;4.00;;;3.53;;
75035;SDS011;64247;51.540;5.854;2023-07-29T01:59:54;5.20;;;4.22;;
75035;SDS011;64247;51.540;5.854;2023-07-29T02:01:55;5.45;;;4.18;;
75035;SDS011;64247;51.540;5.854;2023-07-29T02:03:56;5.15;;;4.40;;
75035;SDS011;64247;51.540;5.854;2023-07-29T02:05:57;5.47;;;4.35;;
75035;SDS011;64247;51.540;5.854;2023-07-29T02:07:58;4.32;;;3.92;;
75035;SDS011;64247;51.540;5.854;2023-07-29T02:09:59;4.13;;;3.72;;
75035;SDS011;64247;51.540;5.854;2023-07-29T02:12:00;4.63;;;3.70;;
75035;SDS011;64247;51.540;5.854;2023-07-29T02:14:21;5.32;;;4.43;;
75035;SDS011;64247;51.540;5.854;2023-07-29T02:16:21;4.57;;;4.18;;
75035;SDS011;64247;51.540;5.854;2023-07-29T02:18:25;7.28;;;4.15;;
75035;SDS011;64247;51.540;5.854;2023-07-29T02:20:26;4.72;;;4.00;;
75035;SDS011;64247;51.540;5.854;2023-07-29T02:22:27;5.28;;;4.68;;
75035;SDS011;64247;51.540;5.854;2023-07-29T02:24:28;5.15;;;4.50;;
75035;SDS011;64247;51.540;5.854;2023-07-29T02:26:28;4.30;;;3.80;;
75035;SDS011;64247;51.540;5.854;2023-07-29T02:28:29;5.70;;;4.70;;
75035;SDS011;64247;51.540;5.854;2023-07-29T02:30:30;4.68;;;3.70;;
75035;SDS011;64247;51.540;5.854;2023-07-29T02:32:32;6.18;;;4.32;;
75035;SDS011;64247;51.540;5.854;2023-07-29T02:34:33;4.25;;;3.42;;
75035;SDS011;64247;51.540;5.854;2023-07-29T02:36:34;3.90;;;3.38;;
75035;SDS011;64247;51.540;5.854;2023-07-29T02:38:34;4.50;;;3.53;;
75035;SDS011;64247;51.540;5.854;2023-07-29T02:40:35;7.10;;;3.75;;
75035;SDS011;64247;51.540;5.854;2023-07-29T02:42:36;3.30;;;2.67;;
75035;SDS011;64247;51.540;5.854;2023-07-29T02:44:37;4.35;;;3.10;;
75035;SDS011;64247;51.540;5.854;2023-07-29T02:46:39;3.75;;;2.58;;
75035;SDS011;64247;51.540;5.854;2023-07-29T02:48:39;4.93;;;2.67;;
75035;SDS011;64247;51.540;5.854;2023-07-29T02:50:40;3.40;;;2.38;;
75035;SDS011;64247;51.540;5.854;2023-07-29T02:52:41;2.85;;;2.45;;
75035;SDS011;64247;51.540;5.854;2023-07-29T02:54:42;3.50;;;2.92;;
75035;SDS011;64247;51.540;5.854;2023-07-29T02:56:43;2.78;;;2.20;;
75035;SDS011;64247;51.540;5.854;2023-07-29T02:58:44;3.55;;;2.70;;
75035;SDS011;64247;51.540;5.854;2023-07-29T03:00:45;3.10;;;2.35;;
75035;SDS011;64247;51.540;5.854;2023-07-29T03:02:47;3.15;;;2.67;;
75035;SDS011;64247;51.540;5.854;2023-07-29T03:04:50;4.47;;;2.30;;
75035;SDS011;64247;51.540;5.854;2023-07-29T03:06:51;4.22;;;2.65;;
75035;SDS011;64247;51.540;5.854;2023-07-29T03:08:52;3.03;;;2.83;;
75035;SDS011;64247;51.540;5.854;2023-07-29T03:10:53;5.10;;;2.80;;
75035;SDS011;64247;51.540;5.854;2023-07-29T03:12:54;4.18;;;2.75;;
75035;SDS011;64247;51.540;5.854;2023-07-29T03:14:56;3.78;;;3.15;;
75035;SDS011;64247;51.540;5.854;2023-07-29T03:16:57;5.97;;;2.67;;
75035;SDS011;64247;51.540;5.854;2023-07-29T03:18:58;3.05;;;2.72;;
75035;SDS011;64247;51.540;5.854;2023-07-29T03:21:02;4.93;;;2.78;;
75035;SDS011;64247;51.540;5.854;2023-07-29T03:23:04;4.60;;;2.95;;
75035;SDS011;64247;51.540;5.854;2023-07-29T03:25:04;3.55;;;2.72;;
75035;SDS011;64247;51.540;5.854;2023-07-29T03:27:06;5.65;;;3.22;;
75035;SDS011;64247;51.540;5.854;2023-07-29T03:29:08;5.95;;;3.03;;
75035;SDS011;64247;51.540;5.854;2023-07-29T03:31:09;5.72;;;2.58;;
75035;SDS011;64247;51.540;5.854;2023-07-29T03:33:10;3.88;;;2.50;;
75035;SDS011;64247;51.540;5.854;2023-07-29T03:35:11;3.13;;;2.60;;
75035;SDS011;64247;51.540;5.854;2023-07-29T03:37:12;4.20;;;2.95;;
75035;SDS011;64247;51.540;5.854;2023-07-29T03:39:14;4.72;;;2.58;;
75035;SDS011;64247;51.540;5.854;2023-07-29T03:41:15;4.43;;;2.40;;
75035;SDS011;64247;51.540;5.854;2023-07-29T03:43:15;2.42;;;2.22;;
75035;SDS011;64247;51.540;5.854;2023-07-29T03:45:17;5.18;;;2.42;;
75035;SDS011;64247;51.540;5.854;2023-07-29T03:47:17;3.13;;;2.33;;
75035;SDS011;64247;51.540;5.854;2023-07-29T03:49:18;3.05;;;2.58;;
75035;SDS011;64247;51.540;5.854;2023-07-29T03:51:19;3.35;;;2.17;;
75035;SDS011;64247;51.540;5.854;2023-07-29T03:53:21;2.67;;;2.25;;
75035;SDS011;64247;51.540;5.854;2023-07-29T03:55:22;3.50;;;2.30;;
75035;SDS011;64247;51.540;5.854;2023-07-29T03:57:22;4.47;;;2.50;;
75035;SDS011;64247;51.540;5.854;2023-07-29T03:59:23;3.50;;;2.60;;
75035;SDS011;64247;51.540;5.854;2023-07-29T04:01:24;3.33;;;2.10;;
75035;SDS011;64247;51.540;5.854;2023-07-29T04:03:25;3.40;;;2.40;;
75035;SDS011;64247;51.540;5.854;2023-07-29T04:05:27;4.43;;;2.20;;
75035;SDS011;64247;51.540;5.854;2023-07-29T04:07:29;3.50;;;2.78;;
75035;SDS011;64247;51.540;5.854;2023-07-29T04:09:30;4.80;;;2.80;;
75035;SDS011;64247;51.540;5.854;2023-07-29T04:11:31;3.05;;;2.75;;
75035;SDS011;64247;51.540;5.854;2023-07-29T04:13:31;4.07;;;2.78;;
75035;SDS011;64247;51.540;5.854;2023-07-29T04:15:32;3.55;;;2.38;;
75035;SDS011;64247;51.540;5.854;2023-07-29T04:17:33;3.80;;;2.40;;
75035;SDS011;64247;51.540;5.854;2023-07-29T04:19:34;3.17;;;2.63;;
75035;SDS011;64247;51.540;5.854;2023-07-29T04:21:35;3.80;;;2.60;;
75035;SDS011;64247;51.540;5.854;2023-07-29T04:23:35;4.55;;;2.80;;
75035;SDS011;64247;51.540;5.854;2023-07-29T04:25:36;4.50;;;2.60;;
75035;SDS011;64247;51.540;5.854;2023-07-29T04:27:37;3.33;;;2.65;;
75035;SDS011;64247;51.540;5.854;2023-07-29T04:29:38;3.17;;;2.88;;
75035;SDS011;64247;51.540;5.854;2023-07-29T04:31:39;3.20;;;2.90;;
75035;SDS011;64247;51.540;5.854;2023-07-29T04:33:39;5.72;;;3.00;;
75035;SDS011;64247;51.540;5.854;2023-07-29T04:35:40;4.07;;;3.05;;
75035;SDS011;64247;51.540;5.854;2023-07-29T04:37:41;3.03;;;2.70;;
75035;SDS011;64247;51.540;5.854;2023-07-29T04:39:42;5.35;;;3.67;;
75035;SDS011;64247;51.540;5.854;2023-07-29T04:41:43;4.68;;;2.88;;
75035;SDS011;64247;51.540;5.854;2023-07-29T04:43:44;4.68;;;3.78;;
75035;SDS011;64247;51.540;5.854;2023-07-29T04:45:44;3.75;;;3.45;;
75035;SDS011;64247;51.540;5.854;2023-07-29T04:47:46;4.47;;;3.75;;
75035;SDS011;64247;51.540;5.854;2023-07-29T04:49:46;5.30;;;3.90;;
75035;SDS011;64247;51.540;5.854;2023-07-29T04:51:47;8.88;;;4.20;;
75035;SDS011;64247;51.540;5.854;2023-07-29T04:53:48;5.10;;;3.58;;
75035;SDS011;64247;51.540;5.854;2023-07-29T04:55:49;8.70;;;5.10;;
75035;SDS011;64247;51.540;5.854;2023-07-29T04:57:49;5.00;;;4.28;;
75035;SDS011;64247;51.540;5.854;2023-07-29T04:59:50;6.00;;;4.35;;
75035;SDS011;64247;51.540;5.854;2023-07-29T05:01:51;9.68;;;4.38;;
75035;SDS011;64247;51.540;5.854;2023-07-29T05:03:52;6.88;;;4.80;;
75035;SDS011;64247;51.540;5.854;2023-07-29T05:05:52;7.22;;;4.57;;
75035;SDS011;64247;51.540;5.854;2023-07-29T05:07:55;14.32;;;5.55;;
75035;SDS011;64247;51.540;5.854;2023-07-29T05:09:56;5.82;;;3.95;;
75035;SDS011;64247;51.540;5.854;2023-07-29T05:11:57;6.07;;;3.72;;
75035;SDS011;64247;51.540;5.854;2023-07-29T05:13:58;5.30;;;3.83;;
75035;SDS011;64247;51.540;5.854;2023-07-29T05:15:58;4.70;;;3.80;;
75035;SDS011;64247;51.540;5.854;2023-07-29T05:17:59;7.30;;;3.70;;
75035;SDS011;64247;51.540;5.854;2023-07-29T05:20:00;4.72;;;3.53;;
75035;SDS011;64247;51.540;5.854;2023-07-29T05:22:01;4.18;;;3.75;;
75035;SDS011;64247;51.540;5.854;2023-07-29T05:24:02;3.78;;;3.35;;
75035;SDS011;64247;51.540;5.854;2023-07-29T05:26:03;3.63;;;3.25;;
75035;SDS011;64247;51.540;5.854;2023-07-29T05:28:04;4.40;;;3.47;;
75035;SDS011;64247;51.540;5.854;2023-07-29T05:30:05;4.85;;;3.75;;
75035;SDS011;64247;51.540;5.854;2023-07-29T05:32:07;3.90;;;3.00;;
75035;SDS011;64247;51.540;5.854;2023-07-29T05:34:08;3.92;;;3.10;;
75035;SDS011;64247;51.540;5.854;2023-07-29T05:36:10;3.55;;;2.53;;
75035;SDS011;64247;51.540;5.854;2023-07-29T05:38:11;3.47;;;2.45;;
75035;SDS011;64247;51.540;5.854;2023-07-29T05:40:11;3.95;;;2.53;;
75035;SDS011;64247;51.540;5.854;2023-07-29T05:42:13;3.75;;;2.88;;
75035;SDS011;64247;51.540;5.854;2023-07-29T05:44:14;5.30;;;3.35;;
75035;SDS011;64247;51.540;5.854;2023-07-29T05:46:15;2.47;;;2.20;;
75035;SDS011;64247;51.540;5.854;2023-07-29T05:48:16;3.00;;;2.50;;
75035;SDS011;64247;51.540;5.854;2023-07-29T05:50:17;2.88;;;2.53;;
75035;SDS011;64247;51.540;5.854;2023-07-29T05:52:18;3.83;;;2.60;;
75035;SDS011;64247;51.540;5.854;2023-07-29T05:54:19;3.00;;;2.70;;
75035;SDS011;64247;51.540;5.854;2023-07-29T05:56:20;3.17;;;2.63;;
75035;SDS011;64247;51.540;5.854;2023-07-29T05:58:21;2.88;;;2.28;;
75035;SDS011;64247;51.540;5.854;2023-07-29T06:00:22;3.88;;;2.75;;
75035;SDS011;64247;51.540;5.854;2023-07-29T06:02:23;3.58;;;2.50;;
75035;SDS011;64247;51.540;5.854;2023-07-29T06:04:24;3.60;;;2.47;;
75035;SDS011;64247;51.540;5.854;2023-07-29T06:06:25;3.35;;;3.00;;
75035;SDS011;64247;51.540;5.854;2023-07-29T06:08:25;3.28;;;2.50;;
75035;SDS011;64247;51.540;5.854;2023-07-29T06:10:28;3.80;;;2.33;;
75035;SDS011;64247;51.540;5.854;2023-07-29T06:12:29;3.35;;;2.88;;
75035;SDS011;64247;51.540;5.854;2023-07-29T06:14:30;2.47;;;1.77;;
75035;SDS011;64247;51.540;5.854;2023-07-29T06:16:31;4.28;;;2.05;;
75035;SDS011;64247;51.540;5.854;2023-07-29T06:18:31;4.85;;;2.70;;
75035;SDS011;64247;51.540;5.854;2023-07-29T06:20:32;3.67;;;2.70;;
75035;SDS011;64247;51.540;5.854;2023-07-29T06:22:33;4.70;;;2.53;;
75035;SDS011;64247;51.540;5.854;2023-07-29T06:24:34;2.80;;;2.35;;
75035;SDS011;64247;51.540;5.854;2023-07-29T06:26:35;3.13;;;2.50;;
75035;SDS011;64247;51.540;5.854;2023-07-29T06:28:36;3.22;;;2.05;;
75035;SDS011;64247;51.540;5.854;2023-07-29T06:30:36;3.20;;;1.90;;
75035;SDS011;64247;51.540;5.854;2023-07-29T06:32:37;3.17;;;2.10;;
75035;SDS011;64247;51.540;5.854;2023-07-29T06:34:38;2.10;;;1.83;;
75035;SDS011;64247;51.540;5.854;2023-07-29T06:36:38;3.25;;;2.58;;
75035;SDS011;64247;51.540;5.854;2023-07-29T06:38:39;4.40;;;1.55;;
75035;SDS011;64247;51.540;5.854;2023-07-29T06:40:41;3.15;;;2.40;;
75035;SDS011;64247;51.540;5.854;2023-07-29T06:42:42;3.25;;;2.35;;
75035;SDS011;64247;51.540;5.854;2023-07-29T06:44:42;3.60;;;2.33;;
75035;SDS011;64247;51.540;5.854;2023-07-29T06:46:46;2.53;;;1.83;;
75035;SDS011;64247;51.540;5.854;2023-07-29T06:48:46;2.58;;;1.80;;
75035;SDS011;64247;51.540;5.854;2023-07-29T06:50:48;1.80;;;1.50;;
75035;SDS011;64247;51.540;5.854;2023-07-29T06:52:50;2.90;;;1.80;;
75035;SDS011;64247;51.540;5.854;2023-07-29T06:54:51;2.67;;;2.33;;
75035;SDS011;64247;51.540;5.854;2023-07-29T06:56:52;2.97;;;2.60;;
75035;SDS011;64247;51.540;5.854;2023-07-29T06:58:53;3.00;;;1.58;;
75035;SDS011;64247;51.540;5.854;2023-07-29T07:00:53;2.47;;;1.98;;
75035;SDS011;64247;51.540;5.854;2023-07-29T07:02:54;3.30;;;2.05;;
75035;SDS011;64247;51.540;5.854;2023-07-29T07:04:55;3.13;;;1.90;;
75035;SDS011;64247;51.540;5.854;2023-07-29T07:06:56;3.08;;;1.45;;
75035;SDS011;64247;51.540;5.854;2023-07-29T07:08:57;2.05;;;1.60;;
75035;SDS011;64247;51.540;5.854;2023-07-29T07:10:58;3.13;;;2.35;;
75035;SDS011;64247;51.540;5.854;2023-07-29T07:12:58;1.30;;;1.20;;
75035;SDS011;64247;51.540;5.854;2023-07-29T07:15:00;1.98;;;1.50;;
75035;SDS011;64247;51.540;5.854;2023-07-29T07:17:01;1.50;;;1.30;;
75035;SDS011;64247;51.540;5.854;2023-07-29T07:19:02;2.13;;;1.90;;
75035;SDS011;64247;51.540;5.854;2023-07-29T07:21:03;1.95;;;1.63;;
75035;SDS011;64247;51.540;5.854;2023-07-29T07:23:04;1.70;;;1.38;;
75035;SDS011;64247;51.540;5.854;2023-07-29T07:25:11;2.75;;;1.90;;
75035;SDS011;64247;51.540;5.854;2023-07-29T07:27:12;2.13;;;1.90;;
75035;SDS011;64247;51.540;5.854;2023-07-29T07:29:13;1.85;;;1.70;;
75035;SDS011;64247;51.540;5.854;2023-07-29T07:31:13;1.95;;;1.63;;
75035;SDS011;64247;51.540;5.854;2023-07-29T07:33:16;1.73;;;1.63;;
75035;SDS011;64247;51.540;5.854;2023-07-29T07:35:17;2.25;;;1.48;;
75035;SDS011;64247;51.540;5.854;2023-07-29T07:37:19;2.05;;;1.88;;
75035;SDS011;64247;51.540;5.854;2023-07-29T07:39:19;2.22;;;1.50;;
75035;SDS011;64247;51.540;5.854;2023-07-29T07:41:20;1.90;;;1.40;;
75035;SDS011;64247;51.540;5.854;2023-07-29T07:43:21;1.20;;;1.10;;
75035;SDS011;64247;51.540;5.854;2023-07-29T07:45:22;1.27;;;1.17;;
75035;SDS011;64247;51.540;5.854;2023-07-29T07:47:23;1.20;;;1.10;;
75035;SDS011;64247;51.540;5.854;2023-07-29T07:49:23;2.05;;;1.27;;
75035;SDS011;64247;51.540;5.854;2023-07-29T07:51:24;1.33;;;1.17;;
75035;SDS011;64247;51.540;5.854;2023-07-29T07:53:25;1.13;;;0.80;;
75035;SDS011;64247;51.540;5.854;2023-07-29T07:55:26;1.63;;;1.52;;
75035;SDS011;64247;51.540;5.854;2023-07-29T07:57:27;2.00;;;1.05;;
75035;SDS011;64247;51.540;5.854;2023-07-29T07:59:27;2.75;;;1.70;;
75035;SDS011;64247;51.540;5.854;2023-07-29T08:01:33;1.30;;;1.05;;
75035;SDS011;64247;51.540;5.854;2023-07-29T08:03:37;1.88;;;1.15;;
75035;SDS011;64247;51.540;5.854;2023-07-29T08:05:38;1.75;;;1.60;;
75035;SDS011;64247;51.540;5.854;2023-07-29T08:07:39;1.67;;;0.98;;
75035;SDS011;64247;51.540;5.854;2023-07-29T08:09:40;1.33;;;1.23;;
75035;SDS011;64247;51.540;5.854;2023-07-29T08:11:40;3.65;;;1.90;;
75035;SDS011;64247;51.540;5.854;2023-07-29T08:13:41;2.75;;;1.40;;
75035;SDS011;64247;51.540;5.854;2023-07-29T08:15:45;1.80;;;1.13;;
75035;SDS011;64247;51.540;5.854;2023-07-29T08:17:46;1.55;;;1.30;;
75035;SDS011;64247;51.540;5.854;2023-07-29T08:19:47;1.65;;;1.05;;
75035;SDS011;64247;51.540;5.854;2023-07-29T08:21:48;0.85;;;0.82;;
75035;SDS011;64247;51.540;5.854;2023-07-29T08:23:48;1.10;;;1.00;;
75035;SDS011;64247;51.540;5.854;2023-07-29T08:25:53;1.63;;;1.20;;
75035;SDS011;64247;51.540;5.854;2023-07-29T08:27:54;1.15;;;0.77;;
75035;SDS011;64247;51.540;5.854;2023-07-29T08:29:55;2.05;;;0.98;;
75035;SDS011;64247;51.540;5.854;2023-07-29T08:31:56;2.35;;;1.20;;
75035;SDS011;64247;51.540;5.854;2023-07-29T08:33:56;1.00;;;0.90;;
75035;SDS011;64247;51.540;5.854;2023-07-29T08:35:57;1.85;;;1.23;;
75035;SDS011;64247;51.540;5.854;2023-07-29T08:37:58;1.13;;;0.88;;
75035;SDS011;64247;51.540;5.854;2023-07-29T08:39:59;1.13;;;0.80;;
75035;SDS011;64247;51.540;5.854;2023-07-29T08:42:03;1.45;;;1.35;;
75035;SDS011;64247;51.540;5.854;2023-07-29T08:46:31;1.23;;;1.13;;
75035;SDS011;64247;51.540;5.854;2023-07-29T08:48:40;2.05;;;0.70;;
75035;SDS011;64247;51.540;5.854;2023-07-29T08:50:41;1.25;;;1.15;;
75035;SDS011;64247;51.540;5.854;2023-07-29T08:52:44;1.33;;;0.80;;
75035;SDS011;64247;51.540;5.854;2023-07-29T08:54:46;1.17;;;0.85;;
75035;SDS011;64247;51.540;5.854;2023-07-29T08:56:47;2.10;;;0.90;;
75035;SDS011;64247;51.540;5.854;2023-07-29T08:58:48;1.13;;;1.02;;
75035;SDS011;64247;51.540;5.854;2023-07-29T09:00:50;1.98;;;1.10;;
75035;SDS011;64247;51.540;5.854;2023-07-29T09:02:51;1.75;;;0.98;;
75035;SDS011;64247;51.540;5.854;2023-07-29T09:04:52;2.55;;;1.58;;
75035;SDS011;64247;51.540;5.854;2023-07-29T09:06:53;1.35;;;1.10;;
75035;SDS011;64247;51.540;5.854;2023-07-29T09:08:56;1.30;;;1.20;;
75035;SDS011;64247;51.540;5.854;2023-07-29T09:10:58;1.55;;;1.00;;
75035;SDS011;64247;51.540;5.854;2023-07-29T09:12:59;1.10;;;1.00;;
75035;SDS011;64247;51.540;5.854;2023-07-29T09:15:02;2.42;;;1.17;;
75035;SDS011;64247;51.540;5.854;2023-07-29T09:17:06;2.97;;;1.05;;
75035;SDS011;64247;51.540;5.854;2023-07-29T09:19:08;1.48;;;0.95;;
75035;SDS011;64247;51.540;5.854;2023-07-29T09:21:09;1.08;;;1.02;;
75035;SDS011;64247;51.540;5.854;2023-07-29T09:23:10;1.25;;;1.10;;
75035;SDS011;64247;51.540;5.854;2023-07-29T09:25:11;1.10;;;1.02;;
75035;SDS011;64247;51.540;5.854;2023-07-29T09:29:39;0.82;;;0.82;;
75035;SDS011;64247;51.540;5.854;2023-07-29T09:31:39;1.73;;;0.98;;
75035;SDS011;64247;51.540;5.854;2023-07-29T09:33:40;2.00;;;1.23;;
75035;SDS011;64247;51.540;5.854;2023-07-29T09:35:42;1.00;;;0.93;;
75035;SDS011;64247;51.540;5.854;2023-07-29T09:37:44;0.60;;;0.60;;
75035;SDS011;64247;51.540;5.854;2023-07-29T09:39:46;1.75;;;0.90;;
75035;SDS011;64247;51.540;5.854;2023-07-29T09:41:50;1.05;;;0.98;;
75035;SDS011;64247;51.540;5.854;2023-07-29T09:43:55;0.80;;;0.80;;
75035;SDS011;64247;51.540;5.854;2023-07-29T09:46:01;0.80;;;0.80;;
75035;SDS011;64247;51.540;5.854;2023-07-29T09:48:03;2.35;;;1.08;;
75035;SDS011;64247;51.540;5.854;2023-07-29T09:50:09;0.50;;;0.50;;
75035;SDS011;64247;51.540;5.854;2023-07-29T09:52:10;1.17;;;0.98;;
75035;SDS011;64247;51.540;5.854;2023-07-29T09:54:11;1.08;;;0.60;;
75035;SDS011;64247;51.540;5.854;2023-07-29T09:56:13;1.25;;;0.80;;
75035;SDS011;64247;51.540;5.854;2023-07-29T09:58:19;1.35;;;0.80;;
75035;SDS011;64247;51.540;5.854;2023-07-29T10:00:27;1.05;;;0.73;;
75035;SDS011;64247;51.540;5.854;2023-07-29T10:02:29;0.95;;;0.70;;
75035;SDS011;64247;51.540;5.854;2023-07-29T10:04:30;0.90;;;0.90;;
75035;SDS011;64247;51.540;5.854;2023-07-29T10:06:33;0.68;;;0.68;;
75035;SDS011;64247;51.540;5.854;2023-07-29T10:08:34;1.05;;;0.95;;
75035;SDS011;64247;51.540;5.854;2023-07-29T10:10:35;1.77;;;0.70;;
75035;SDS011;64247;51.540;5.854;2023-07-29T10:12:36;1.00;;;0.90;;
75035;SDS011;64247;51.540;5.854;2023-07-29T10:14:39;1.05;;;0.95;;
75035;SDS011;64247;51.540;5.854;2023-07-29T10:16:41;2.05;;;1.00;;
75035;SDS011;64247;51.540;5.854;2023-07-29T10:18:45;1.10;;;0.98;;
75035;SDS011;64247;51.540;5.854;2023-07-29T10:20:47;1.10;;;0.95;;
75035;SDS011;64247;51.540;5.854;2023-07-29T10:22:50;1.17;;;1.08;;
75035;SDS011;64247;51.540;5.854;2023-07-29T10:24:56;1.42;;;1.33;;
75035;SDS011;64247;51.540;5.854;2023-07-29T10:27:03;0.68;;;0.68;;
75035;SDS011;64247;51.540;5.854;2023-07-29T10:29:04;1.88;;;0.82;;
75035;SDS011;64247;51.540;5.854;2023-07-29T10:31:09;2.20;;;1.00;;
75035;SDS011;64247;51.540;5.854;2023-07-29T10:33:10;0.93;;;0.90;;
75035;SDS011;64247;51.540;5.854;2023-07-29T10:35:14;1.23;;;1.13;;
75035;SDS011;64247;51.540;5.854;2023-07-29T10:37:16;1.02;;;0.82;;
75035;SDS011;64247;51.540;5.854;2023-07-29T10:39:17;0.63;;;0.60;;
75035;SDS011;64247;51.540;5.854;2023-07-29T10:41:18;0.90;;;0.80;;
75035;SDS011;64247;51.540;5.854;2023-07-29T10:43:26;0.70;;;0.70;;
75035;SDS011;64247;51.540;5.854;2023-07-29T10:45:47;1.50;;;0.88;;
75035;SDS011;64247;51.540;5.854;2023-07-29T10:47:48;1.33;;;1.20;;
75035;SDS011;64247;51.540;5.854;2023-07-29T10:49:50;1.27;;;1.05;;
75035;SDS011;64247;51.540;5.854;2023-07-29T10:51:52;1.60;;;1.02;;
75035;SDS011;64247;51.540;5.854;2023-07-29T10:54:01;1.02;;;1.00;;
75035;SDS011;64247;51.540;5.854;2023-07-29T10:56:53;1.08;;;0.98;;
75035;SDS011;64247;51.540;5.854;2023-07-29T10:58:50;0.95;;;0.75;;
75035;SDS011;64247;51.540;5.854;2023-07-29T11:00:51;0.88;;;0.88;;
75035;SDS011;64247;51.540;5.854;2023-07-29T11:02:59;1.40;;;0.77;;
75035;SDS011;64247;51.540;5.854;2023-07-29T11:05:05;0.70;;;0.70;;
75035;SDS011;64247;51.540;5.854;2023-07-29T11:14:46;0.88;;;0.88;;
75035;SDS011;64247;51.540;5.854;2023-07-29T11:16:47;1.10;;;1.00;;
75035;SDS011;64247;51.540;5.854;2023-07-29T11:18:48;1.15;;;1.05;;
75035;SDS011;64247;51.540;5.854;2023-07-29T11:20:49;1.50;;;1.10;;
75035;SDS011;64247;51.540;5.854;2023-07-29T11:22:50;2.45;;;1.15;;
75035;SDS011;64247;51.540;5.854;2023-07-29T11:24:51;4.22;;;1.10;;
75035;SDS011;64247;51.540;5.854;2023-07-29T11:26:52;0.90;;;0.90;;
75035;SDS011;64247;51.540;5.854;2023-07-29T11:28:52;1.40;;;0.90;;
75035;SDS011;64247;51.540;5.854;2023-07-29T11:30:54;3.03;;;1.08;;
75035;SDS011;64247;51.540;5.854;2023-07-29T11:32:58;1.85;;;1.25;;
75035;SDS011;64247;51.540;5.854;2023-07-29T11:35:02;1.35;;;1.10;;
75035;SDS011;64247;51.540;5.854;2023-07-29T11:37:11;1.20;;;1.10;;
75035;SDS011;64247;51.540;5.854;2023-07-29T11:39:11;1.55;;;1.30;;
75035;SDS011;64247;51.540;5.854;2023-07-29T11:41:12;1.65;;;1.08;;
75035;SDS011;64247;51.540;5.854;2023-07-29T11:43:19;1.88;;;1.02;;
75035;SDS011;64247;51.540;5.854;2023-07-29T11:45:21;1.35;;;0.88;;
75035;SDS011;64247;51.540;5.854;2023-07-29T11:47:23;1.30;;;0.90;;
75035;SDS011;64247;51.540;5.854;2023-07-29T11:49:24;1.67;;;1.50;;
75035;SDS011;64247;51.540;5.854;2023-07-29T11:51:25;1.48;;;1.00;;
75035;SDS011;64247;51.540;5.854;2023-07-29T11:53:29;1.50;;;1.10;;
75035;SDS011;64247;51.540;5.854;2023-07-29T11:55:31;1.77;;;1.05;;
75035;SDS011;64247;51.540;5.854;2023-07-29T11:57:35;1.48;;;0.93;;
75035;SDS011;64247;51.540;5.854;2023-07-29T11:59:37;1.42;;;1.20;;
75035;SDS011;64247;51.540;5.854;2023-07-29T12:01:38;1.88;;;1.10;;
75035;SDS011;64247;51.540;5.854;2023-07-29T12:03:39;1.77;;;1.30;;
75035;SDS011;64247;51.540;5.854;2023-07-29T12:05:40;1.33;;;1.23;;
75035;SDS011;64247;51.540;5.854;2023-07-29T12:07:41;1.50;;;1.00;;
75035;SDS011;64247;51.540;5.854;2023-07-29T12:09:45;1.48;;;1.35;;
75035;SDS011;64247;51.540;5.854;2023-07-29T12:11:46;1.50;;;1.40;;
75035;SDS011;64247;51.540;5.854;2023-07-29T12:13:47;1.30;;;1.20;;
75035;SDS011;64247;51.540;5.854;2023-07-29T12:15:48;2.13;;;1.83;;
75035;SDS011;64247;51.540;5.854;2023-07-29T12:17:52;1.80;;;1.58;;
75035;SDS011;64247;51.540;5.854;2023-07-29T12:19:54;1.58;;;1.27;;
75035;SDS011;64247;51.540;5.854;2023-07-29T12:21:55;1.42;;;1.33;;
75035;SDS011;64247;51.540;5.854;2023-07-29T12:23:56;2.08;;;1.45;;
75035;SDS011;64247;51.540;5.854;2023-07-29T12:25:57;2.88;;;1.80;;
75035;SDS011;64247;51.540;5.854;2023-07-29T12:28:03;1.60;;;1.50;;
75035;SDS011;64247;51.540;5.854;2023-07-29T12:30:05;1.63;;;1.50;;
75035;SDS011;64247;51.540;5.854;2023-07-29T12:32:06;2.22;;;2.03;;